LHA8358 OAKB-OMDB
Flight info
| Callsign | LHA8358 |
|---|---|
| Flight time | 2h 19m |
| Altitude | 34000 |
| Route | NOLEX A453 OGOGO/N0432F280 A453 GADER/N0464F380 A453 DAVEP Q10 MOBET M324 PATAT L519 PUVAL |
| Aircraft | A339/H-SDE1E2FGHIJ4RWXYZ/S |
Departure
| Time | 2026-04-25 15:08 |
|---|---|
| Airport | Kabul International Airport (OAKB) |
Arrival
| Time | 2026-04-25 17:27 |
|---|---|
| Airport | Dubai International Airport (OMDB) |
| Time | Latitude | Longitude | Altitude | Speed | Heading |
|---|---|---|---|---|---|
| 2026-04-25 14:54 | 34.56263 | 69.20989 | 5829 ft | 0 kts | 203° |
| 2026-04-25 15:00 | 34.56267 | 69.20991 | 5836 ft | 2 kts | 201° |
| 2026-04-25 15:00 | 34.56285 | 69.21000 | 5833 ft | 3 kts | 189° |
| 2026-04-25 15:00 | 34.56303 | 69.21004 | 5834 ft | 3 kts | 172° |
| 2026-04-25 15:01 | 34.56322 | 69.21000 | 5831 ft | 3 kts | 150° |
| 2026-04-25 15:01 | 34.56338 | 69.20990 | 5833 ft | 3 kts | 127° |
| 2026-04-25 15:01 | 34.56346 | 69.20977 | 5834 ft | 1 kts | 113° |
| 2026-04-25 15:03 | 34.56327 | 69.21046 | 5828 ft | 19 kts | 109° |
| 2026-04-25 15:04 | 34.56279 | 69.21205 | 5831 ft | 20 kts | 111° |
| 2026-04-25 15:04 | 34.56244 | 69.21307 | 5829 ft | 19 kts | 113° |
| 2026-04-25 15:04 | 34.56193 | 69.21507 | 5836 ft | 18 kts | 92° |
| 2026-04-25 15:04 | 34.56188 | 69.21655 | 5835 ft | 17 kts | 92° |
| 2026-04-25 15:05 | 34.56178 | 69.21800 | 5836 ft | 18 kts | 96° |
| 2026-04-25 15:05 | 34.56162 | 69.21985 | 5834 ft | 25 kts | 97° |
| 2026-04-25 15:05 | 34.56142 | 69.22190 | 5835 ft | 22 kts | 95° |
| 2026-04-25 15:06 | 34.56068 | 69.22540 | 5837 ft | 27 kts | 106° |
| 2026-04-25 15:06 | 34.56006 | 69.22772 | 5838 ft | 29 kts | 108° |
| 2026-04-25 15:06 | 34.55989 | 69.22973 | 5838 ft | 16 kts | 52° |
| 2026-04-25 15:06 | 34.56078 | 69.23026 | 5837 ft | 13 kts | 20° |
| 2026-04-25 15:07 | 34.56126 | 69.23008 | 5837 ft | 5 kts | 297° |
| 2026-04-25 15:07 | 34.56175 | 69.22827 | 5837 ft | 54 kts | 287° |
| 2026-04-25 15:07 | 34.56357 | 69.22123 | 5835 ft | 119 kts | 287° |
| 2026-04-25 15:07 | 34.56653 | 69.20970 | 5833 ft | 165 kts | 287° |
| 2026-04-25 15:08 | 34.57028 | 69.19510 | 5931 ft | 191 kts | 288° |
| 2026-04-25 15:08 | 34.57421 | 69.17948 | 6439 ft | 196 kts | 288° |
| 2026-04-25 15:08 | 34.57820 | 69.16354 | 6962 ft | 199 kts | 288° |
| 2026-04-25 15:08 | 34.58196 | 69.14726 | 7485 ft | 202 kts | 286° |
| 2026-04-25 15:09 | 34.58584 | 69.13086 | 7993 ft | 202 kts | 287° |
| 2026-04-25 15:09 | 34.59000 | 69.11456 | 8423 ft | 203 kts | 289° |
| 2026-04-25 15:09 | 34.59950 | 69.08149 | 9321 ft | 216 kts | 291° |
| 2026-04-25 15:10 | 34.60442 | 69.06339 | 9575 ft | 236 kts | 289° |
| 2026-04-25 15:10 | 34.60948 | 69.04345 | 9747 ft | 258 kts | 289° |
| 2026-04-25 15:10 | 34.62071 | 68.99867 | 10229 ft | 293 kts | 288° |
| 2026-04-25 15:11 | 34.62683 | 68.97424 | 10416 ft | 312 kts | 288° |
| 2026-04-25 15:11 | 34.63339 | 68.94832 | 10575 ft | 330 kts | 287° |
| 2026-04-25 15:11 | 34.63906 | 68.92407 | 12426 ft | 272 kts | 284° |
| 2026-04-25 15:12 | 34.63309 | 68.87881 | 13472 ft | 295 kts | 241° |
| 2026-04-25 15:12 | 34.61985 | 68.85888 | 13552 ft | 313 kts | 222° |
| 2026-04-25 15:12 | 34.60076 | 68.84479 | 13779 ft | 333 kts | 203° |
| 2026-04-25 15:12 | 34.59323 | 68.84178 | 13825 ft | 340 kts | 196° |
| 2026-04-25 15:13 | 34.55306 | 68.83236 | 14163 ft | 366 kts | 192° |
| 2026-04-25 15:13 | 34.50267 | 68.82029 | 15172 ft | 372 kts | 193° |
| 2026-04-25 15:13 | 34.47714 | 68.81396 | 15665 ft | 376 kts | 193° |
| 2026-04-25 15:14 | 34.45143 | 68.80743 | 16140 ft | 379 kts | 193° |
| 2026-04-25 15:14 | 34.42548 | 68.80083 | 16586 ft | 383 kts | 193° |
| 2026-04-25 15:14 | 34.39934 | 68.79419 | 17041 ft | 385 kts | 193° |
| 2026-04-25 15:14 | 34.37297 | 68.78751 | 17487 ft | 388 kts | 193° |
| 2026-04-25 15:15 | 34.34643 | 68.78080 | 17931 ft | 392 kts | 194° |
| 2026-04-25 15:15 | 34.31967 | 68.77402 | 18402 ft | 395 kts | 194° |
| 2026-04-25 15:15 | 34.29266 | 68.76717 | 18825 ft | 398 kts | 194° |
| 2026-04-25 15:15 | 34.26551 | 68.76029 | 19235 ft | 400 kts | 194° |
| 2026-04-25 15:16 | 34.23823 | 68.75338 | 19775 ft | 400 kts | 194° |
| 2026-04-25 15:16 | 34.21079 | 68.74645 | 20114 ft | 406 kts | 194° |
| 2026-04-25 15:16 | 34.15507 | 68.73240 | 20903 ft | 412 kts | 195° |
| 2026-04-25 15:17 | 34.09867 | 68.71820 | 21767 ft | 417 kts | 195° |
| 2026-04-25 15:17 | 34.07051 | 68.71111 | 22187 ft | 420 kts | 196° |
| 2026-04-25 15:17 | 34.04146 | 68.70380 | 22653 ft | 422 kts | 196° |
| 2026-04-25 15:18 | 34.01251 | 68.69652 | 23018 ft | 427 kts | 196° |
| 2026-04-25 15:18 | 33.95436 | 68.68192 | 23850 ft | 432 kts | 196° |
| 2026-04-25 15:18 | 33.92485 | 68.67452 | 24251 ft | 435 kts | 197° |
| 2026-04-25 15:19 | 33.89525 | 68.66668 | 24644 ft | 435 kts | 200° |
| 2026-04-25 15:19 | 33.88548 | 68.66329 | 24766 ft | 434 kts | 202° |
| 2026-04-25 15:19 | 33.83979 | 68.63950 | 25446 ft | 428 kts | 215° |
| 2026-04-25 15:19 | 33.81458 | 68.62061 | 25842 ft | 428 kts | 219° |
| 2026-04-25 15:20 | 33.79760 | 68.60756 | 26127 ft | 429 kts | 219° |
| 2026-04-25 15:20 | 33.76406 | 68.58206 | 26662 ft | 432 kts | 219° |
| 2026-04-25 15:20 | 33.73852 | 68.56279 | 27090 ft | 434 kts | 219° |
| 2026-04-25 15:20 | 33.71286 | 68.54349 | 27460 ft | 437 kts | 219° |
| 2026-04-25 15:21 | 33.68702 | 68.52410 | 27848 ft | 439 kts | 219° |
| 2026-04-25 15:21 | 33.66110 | 68.50462 | 28238 ft | 441 kts | 219° |
| 2026-04-25 15:21 | 33.63504 | 68.48506 | 28594 ft | 443 kts | 219° |
| 2026-04-25 15:21 | 33.60885 | 68.46543 | 28955 ft | 445 kts | 219° |
| 2026-04-25 15:22 | 33.58252 | 68.44568 | 29280 ft | 447 kts | 220° |
| 2026-04-25 15:22 | 33.55679 | 68.42492 | 29550 ft | 443 kts | 225° |
| 2026-04-25 15:22 | 33.53339 | 68.40119 | 29849 ft | 439 kts | 231° |
| 2026-04-25 15:22 | 33.51232 | 68.37500 | 30191 ft | 437 kts | 235° |
| 2026-04-25 15:23 | 33.49158 | 68.34830 | 30519 ft | 438 kts | 234° |
| 2026-04-25 15:23 | 33.47070 | 68.32165 | 30859 ft | 439 kts | 234° |
| 2026-04-25 15:23 | 33.44970 | 68.29498 | 31205 ft | 441 kts | 234° |
| 2026-04-25 15:23 | 33.42860 | 68.26824 | 31525 ft | 442 kts | 234° |
| 2026-04-25 15:24 | 33.40746 | 68.24149 | 31867 ft | 443 kts | 233° |
| 2026-04-25 15:24 | 33.38622 | 68.21464 | 32156 ft | 445 kts | 233° |
| 2026-04-25 15:24 | 33.36494 | 68.18772 | 32466 ft | 446 kts | 233° |
| 2026-04-25 15:24 | 33.35801 | 68.17896 | 32555 ft | 447 kts | 233° |
| 2026-04-25 15:25 | 33.32346 | 68.13534 | 32942 ft | 449 kts | 233° |
| 2026-04-25 15:25 | 33.30196 | 68.10821 | 33165 ft | 450 kts | 233° |
| 2026-04-25 15:25 | 33.28768 | 68.09020 | 33275 ft | 451 kts | 233° |
| 2026-04-25 15:25 | 33.25873 | 68.05375 | 33479 ft | 453 kts | 233° |
| 2026-04-25 15:26 | 33.24436 | 68.03566 | 33617 ft | 453 kts | 233° |
| 2026-04-25 15:26 | 33.22267 | 68.00838 | 33818 ft | 453 kts | 233° |
| 2026-04-25 15:26 | 33.20098 | 67.98113 | 34021 ft | 452 kts | 232° |
| 2026-04-25 15:26 | 33.17929 | 67.95389 | 34070 ft | 452 kts | 232° |
| 2026-04-25 15:27 | 33.13593 | 67.89949 | 34074 ft | 453 kts | 232° |
| 2026-04-25 15:28 | 33.07067 | 67.81781 | 34063 ft | 454 kts | 232° |
| 2026-04-25 15:28 | 33.02712 | 67.76339 | 34063 ft | 453 kts | 232° |
| 2026-04-25 15:29 | 32.98354 | 67.70901 | 34067 ft | 454 kts | 232° |
| 2026-04-25 15:29 | 32.93993 | 67.65467 | 34066 ft | 454 kts | 232° |
| 2026-04-25 15:30 | 32.89621 | 67.60032 | 34068 ft | 454 kts | 232° |
| 2026-04-25 15:30 | 32.85286 | 67.54649 | 34063 ft | 453 kts | 231° |
| 2026-04-25 15:31 | 32.80919 | 67.49237 | 34063 ft | 454 kts | 231° |
| 2026-04-25 15:31 | 32.76551 | 67.43835 | 34056 ft | 453 kts | 231° |
| 2026-04-25 15:32 | 32.72098 | 67.38528 | 34057 ft | 454 kts | 230° |
| 2026-04-25 15:32 | 32.67628 | 67.33253 | 34049 ft | 452 kts | 230° |
| 2026-04-25 15:33 | 32.60965 | 67.25355 | 34046 ft | 451 kts | 230° |
| 2026-04-25 15:33 | 32.56530 | 67.20102 | 34040 ft | 451 kts | 230° |
| 2026-04-25 15:34 | 32.52094 | 67.14857 | 34033 ft | 450 kts | 230° |
| 2026-04-25 15:34 | 32.48408 | 67.10506 | 34032 ft | 450 kts | 229° |
| 2026-04-25 15:35 | 32.41010 | 67.01788 | 34028 ft | 450 kts | 229° |
| 2026-04-25 15:36 | 32.34355 | 66.93963 | 34024 ft | 449 kts | 229° |
| 2026-04-25 15:36 | 32.29918 | 66.88759 | 34023 ft | 449 kts | 229° |
| 2026-04-25 15:37 | 32.25491 | 66.83566 | 34017 ft | 448 kts | 229° |
| 2026-04-25 15:37 | 32.21058 | 66.78379 | 34009 ft | 449 kts | 229° |
| 2026-04-25 15:38 | 32.16623 | 66.73196 | 34005 ft | 449 kts | 229° |
| 2026-04-25 15:38 | 32.12172 | 66.68004 | 34022 ft | 451 kts | 229° |
| 2026-04-25 15:39 | 32.07711 | 66.62809 | 34016 ft | 451 kts | 229° |
| 2026-04-25 15:39 | 32.03317 | 66.57600 | 33996 ft | 451 kts | 230° |
| 2026-04-25 15:40 | 31.99712 | 66.53090 | 33997 ft | 451 kts | 230° |
| 2026-04-25 15:40 | 31.94709 | 66.46849 | 33992 ft | 451 kts | 230° |
| 2026-04-25 15:41 | 31.90377 | 66.41495 | 33987 ft | 452 kts | 230° |
| 2026-04-25 15:41 | 31.86033 | 66.36141 | 33986 ft | 453 kts | 230° |
| 2026-04-25 15:42 | 31.81681 | 66.30785 | 33980 ft | 453 kts | 230° |
| 2026-04-25 15:42 | 31.77322 | 66.25429 | 33981 ft | 453 kts | 230° |
| 2026-04-25 15:43 | 31.72958 | 66.20075 | 33975 ft | 454 kts | 230° |
| 2026-04-25 15:43 | 31.68590 | 66.14721 | 33967 ft | 454 kts | 230° |
| 2026-04-25 15:44 | 31.64221 | 66.09376 | 33963 ft | 454 kts | 230° |
| 2026-04-25 15:44 | 31.59846 | 66.04031 | 33958 ft | 454 kts | 230° |
| 2026-04-25 15:45 | 31.55466 | 65.98686 | 33957 ft | 454 kts | 230° |
| 2026-04-25 15:45 | 31.51831 | 65.94243 | 33953 ft | 454 kts | 231° |
| 2026-04-25 15:46 | 31.47524 | 65.87321 | 33952 ft | 448 kts | 243° |
| 2026-04-25 15:46 | 31.44904 | 65.80738 | 33965 ft | 445 kts | 250° |
| 2026-04-25 15:47 | 31.42467 | 65.74060 | 33942 ft | 446 kts | 249° |
| 2026-04-25 15:47 | 31.40005 | 65.67394 | 33942 ft | 447 kts | 249° |
| 2026-04-25 15:48 | 31.37534 | 65.60721 | 33965 ft | 447 kts | 249° |
| 2026-04-25 15:48 | 31.35062 | 65.54054 | 33956 ft | 447 kts | 249° |
| 2026-04-25 15:49 | 31.32585 | 65.47386 | 33942 ft | 447 kts | 249° |
| 2026-04-25 15:49 | 31.30119 | 65.40761 | 33955 ft | 447 kts | 248° |
| 2026-04-25 15:50 | 31.27633 | 65.34095 | 33950 ft | 447 kts | 248° |
| 2026-04-25 15:50 | 31.25141 | 65.27430 | 33952 ft | 448 kts | 248° |
| 2026-04-25 15:51 | 31.23050 | 65.21846 | 33952 ft | 448 kts | 248° |
| 2026-04-25 15:51 | 31.20144 | 65.14098 | 33953 ft | 448 kts | 248° |
| 2026-04-25 15:52 | 31.17638 | 65.07428 | 33954 ft | 449 kts | 248° |
| 2026-04-25 15:52 | 31.15125 | 65.00755 | 33946 ft | 449 kts | 248° |
| 2026-04-25 15:53 | 31.12619 | 64.94079 | 33949 ft | 449 kts | 248° |
| 2026-04-25 15:53 | 31.10113 | 64.87396 | 33942 ft | 450 kts | 248° |
| 2026-04-25 15:54 | 31.07598 | 64.80708 | 33947 ft | 450 kts | 248° |
| 2026-04-25 15:54 | 31.05076 | 64.74015 | 33943 ft | 451 kts | 248° |
| 2026-04-25 15:55 | 31.02546 | 64.67315 | 33942 ft | 452 kts | 249° |
| 2026-04-25 15:55 | 31.00007 | 64.60605 | 33940 ft | 453 kts | 249° |
| 2026-04-25 15:56 | 30.97461 | 64.53889 | 33933 ft | 453 kts | 248° |
| 2026-04-25 15:56 | 30.94910 | 64.47172 | 33934 ft | 453 kts | 248° |
| 2026-04-25 15:57 | 30.92351 | 64.40455 | 33926 ft | 454 kts | 248° |
| 2026-04-25 15:57 | 30.89804 | 64.33791 | 33921 ft | 454 kts | 248° |
| 2026-04-25 15:58 | 30.87235 | 64.27081 | 33911 ft | 454 kts | 248° |
| 2026-04-25 15:58 | 30.84664 | 64.20376 | 33910 ft | 454 kts | 248° |
| 2026-04-25 15:59 | 30.82090 | 64.13679 | 33911 ft | 453 kts | 248° |
| 2026-04-25 15:59 | 30.79515 | 64.06989 | 33904 ft | 453 kts | 248° |
| 2026-04-25 16:00 | 30.77790 | 64.02514 | 33903 ft | 453 kts | 248° |
| 2026-04-25 16:00 | 30.74357 | 63.93628 | 33898 ft | 452 kts | 248° |
| 2026-04-25 16:01 | 30.71778 | 63.86964 | 33897 ft | 452 kts | 248° |
| 2026-04-25 16:01 | 30.69118 | 63.80347 | 33894 ft | 452 kts | 246° |
| 2026-04-25 16:02 | 30.66339 | 63.73793 | 33893 ft | 452 kts | 246° |
| 2026-04-25 16:02 | 30.63577 | 63.67242 | 33892 ft | 451 kts | 246° |
| 2026-04-25 16:03 | 30.60827 | 63.60690 | 33884 ft | 451 kts | 247° |
| 2026-04-25 16:03 | 30.58078 | 63.54147 | 33885 ft | 451 kts | 247° |
| 2026-04-25 16:04 | 30.55327 | 63.47609 | 33894 ft | 451 kts | 247° |
| 2026-04-25 16:04 | 30.52570 | 63.41071 | 33885 ft | 451 kts | 247° |
| 2026-04-25 16:05 | 30.49807 | 63.34529 | 33880 ft | 452 kts | 247° |
| 2026-04-25 16:06 | 30.45677 | 63.24772 | 33883 ft | 451 kts | 247° |
| 2026-04-25 16:06 | 30.42907 | 63.18240 | 33870 ft | 452 kts | 247° |
| 2026-04-25 16:07 | 30.40131 | 63.11710 | 33871 ft | 452 kts | 247° |
| 2026-04-25 16:07 | 30.37346 | 63.05178 | 33868 ft | 452 kts | 247° |
| 2026-04-25 16:08 | 30.34559 | 62.98644 | 33870 ft | 453 kts | 247° |
| 2026-04-25 16:08 | 30.31767 | 62.92113 | 33870 ft | 453 kts | 247° |
| 2026-04-25 16:09 | 30.28968 | 62.85575 | 33869 ft | 453 kts | 246° |
| 2026-04-25 16:09 | 30.26165 | 62.79041 | 33869 ft | 454 kts | 246° |
| 2026-04-25 16:10 | 30.23355 | 62.72505 | 33865 ft | 454 kts | 246° |
| 2026-04-25 16:10 | 30.20542 | 62.65968 | 33865 ft | 454 kts | 246° |
| 2026-04-25 16:11 | 30.17723 | 62.59432 | 33860 ft | 454 kts | 246° |
| 2026-04-25 16:11 | 30.14902 | 62.52903 | 33862 ft | 454 kts | 246° |
| 2026-04-25 16:12 | 30.12076 | 62.46374 | 33864 ft | 454 kts | 246° |
| 2026-04-25 16:12 | 30.09246 | 62.39844 | 33865 ft | 455 kts | 246° |
| 2026-04-25 16:13 | 30.06412 | 62.33319 | 33862 ft | 455 kts | 245° |
| 2026-04-25 16:13 | 30.03574 | 62.26791 | 33864 ft | 455 kts | 245° |
| 2026-04-25 16:14 | 30.00731 | 62.20268 | 33863 ft | 455 kts | 245° |
| 2026-04-25 16:14 | 29.97905 | 62.13791 | 33864 ft | 455 kts | 245° |
| 2026-04-25 16:15 | 29.95060 | 62.07281 | 33862 ft | 455 kts | 245° |
| 2026-04-25 16:15 | 29.92211 | 62.00772 | 33866 ft | 454 kts | 245° |
| 2026-04-25 16:16 | 29.89823 | 61.95326 | 33866 ft | 454 kts | 245° |
| 2026-04-25 16:16 | 29.86968 | 61.88828 | 33873 ft | 454 kts | 245° |
| 2026-04-25 16:17 | 29.84115 | 61.82344 | 33875 ft | 453 kts | 245° |
| 2026-04-25 16:17 | 29.81264 | 61.75876 | 33881 ft | 452 kts | 245° |
| 2026-04-25 16:18 | 29.78418 | 61.69431 | 33878 ft | 451 kts | 245° |
| 2026-04-25 16:18 | 29.75597 | 61.63052 | 33890 ft | 450 kts | 245° |
| 2026-04-25 16:19 | 29.72760 | 61.56646 | 33889 ft | 449 kts | 245° |
| 2026-04-25 16:19 | 29.69926 | 61.50259 | 33895 ft | 448 kts | 245° |
| 2026-04-25 16:20 | 29.66170 | 61.40468 | 33905 ft | 446 kts | 250° |
| 2026-04-25 16:21 | 29.62747 | 61.30523 | 33931 ft | 446 kts | 250° |
| 2026-04-25 16:21 | 29.60450 | 61.23901 | 33992 ft | 446 kts | 250° |
| 2026-04-25 16:22 | 29.58148 | 61.17282 | 34058 ft | 446 kts | 250° |
| 2026-04-25 16:22 | 29.55842 | 61.10662 | 34110 ft | 447 kts | 250° |
| 2026-04-25 16:23 | 29.53531 | 61.04040 | 34135 ft | 447 kts | 250° |
| 2026-04-25 16:23 | 29.51217 | 60.97419 | 34143 ft | 447 kts | 250° |
| 2026-04-25 16:24 | 29.48878 | 60.90804 | 34140 ft | 448 kts | 248° |
| 2026-04-25 16:24 | 29.45964 | 60.84474 | 34151 ft | 449 kts | 243° |
| 2026-04-25 16:25 | 29.42949 | 60.78199 | 34145 ft | 449 kts | 244° |
| 2026-04-25 16:25 | 29.39943 | 60.71926 | 34134 ft | 449 kts | 244° |
| 2026-04-25 16:26 | 29.36935 | 60.65658 | 34115 ft | 449 kts | 244° |
| 2026-04-25 16:26 | 29.33923 | 60.59391 | 34081 ft | 449 kts | 244° |
| 2026-04-25 16:27 | 29.30911 | 60.53130 | 34054 ft | 449 kts | 244° |
| 2026-04-25 16:27 | 29.27904 | 60.46873 | 34063 ft | 448 kts | 244° |
| 2026-04-25 16:28 | 29.24895 | 60.40623 | 34048 ft | 448 kts | 243° |
| 2026-04-25 16:28 | 29.21893 | 60.34381 | 34040 ft | 447 kts | 244° |
| 2026-04-25 16:29 | 29.18918 | 60.28183 | 34032 ft | 447 kts | 243° |
| 2026-04-25 16:29 | 29.15925 | 60.21959 | 34020 ft | 447 kts | 243° |
| 2026-04-25 16:30 | 29.12925 | 60.15734 | 33997 ft | 446 kts | 243° |
| 2026-04-25 16:30 | 29.09927 | 60.09525 | 33989 ft | 446 kts | 243° |
| 2026-04-25 16:31 | 29.06924 | 60.03312 | 33969 ft | 446 kts | 243° |
| 2026-04-25 16:31 | 29.03919 | 59.97105 | 33956 ft | 446 kts | 243° |
| 2026-04-25 16:32 | 29.00911 | 59.90904 | 33947 ft | 446 kts | 243° |
| 2026-04-25 16:32 | 28.97899 | 59.84708 | 33930 ft | 446 kts | 243° |
| 2026-04-25 16:33 | 28.94868 | 59.78527 | 33919 ft | 446 kts | 243° |
| 2026-04-25 16:33 | 28.91838 | 59.72357 | 33904 ft | 446 kts | 243° |
| 2026-04-25 16:34 | 28.88807 | 59.66189 | 33904 ft | 446 kts | 243° |
| 2026-04-25 16:34 | 28.85771 | 59.60019 | 33878 ft | 446 kts | 243° |
| 2026-04-25 16:35 | 28.82735 | 59.53858 | 33888 ft | 446 kts | 243° |
| 2026-04-25 16:35 | 28.79692 | 59.47695 | 33895 ft | 446 kts | 243° |
| 2026-04-25 16:36 | 28.76646 | 59.41533 | 33890 ft | 447 kts | 243° |
| 2026-04-25 16:36 | 28.73615 | 59.35409 | 33892 ft | 447 kts | 243° |
| 2026-04-25 16:37 | 28.70560 | 59.29249 | 33892 ft | 446 kts | 243° |
| 2026-04-25 16:37 | 28.67504 | 59.23094 | 33900 ft | 446 kts | 243° |
| 2026-04-25 16:38 | 28.64446 | 59.16944 | 33902 ft | 446 kts | 242° |
| 2026-04-25 16:38 | 28.61389 | 59.10808 | 33912 ft | 446 kts | 242° |
| 2026-04-25 16:39 | 28.58331 | 59.04675 | 33921 ft | 445 kts | 242° |
| 2026-04-25 16:39 | 28.55274 | 58.98555 | 33927 ft | 445 kts | 242° |
| 2026-04-25 16:40 | 28.52227 | 58.92465 | 33932 ft | 444 kts | 242° |
| 2026-04-25 16:40 | 28.49170 | 58.86364 | 33945 ft | 444 kts | 242° |
| 2026-04-25 16:41 | 28.46115 | 58.80275 | 33952 ft | 443 kts | 242° |
| 2026-04-25 16:41 | 28.41536 | 58.71164 | 33962 ft | 442 kts | 242° |
| 2026-04-25 16:42 | 28.38483 | 58.65103 | 33974 ft | 442 kts | 242° |
| 2026-04-25 16:42 | 28.35434 | 58.59059 | 33983 ft | 441 kts | 242° |
| 2026-04-25 16:43 | 28.32384 | 58.53020 | 33983 ft | 441 kts | 242° |
| 2026-04-25 16:43 | 28.29330 | 58.46981 | 33985 ft | 441 kts | 242° |
| 2026-04-25 16:44 | 28.26278 | 58.40956 | 33974 ft | 441 kts | 242° |
| 2026-04-25 16:44 | 28.23198 | 58.34943 | 33963 ft | 441 kts | 242° |
| 2026-04-25 16:45 | 28.20111 | 58.28920 | 33939 ft | 442 kts | 242° |
| 2026-04-25 16:45 | 28.17019 | 58.22890 | 33936 ft | 443 kts | 242° |
| 2026-04-25 16:46 | 28.13919 | 58.16853 | 33924 ft | 444 kts | 242° |
| 2026-04-25 16:46 | 28.11860 | 58.12847 | 33919 ft | 444 kts | 242° |
| 2026-04-25 16:47 | 28.07715 | 58.04795 | 33919 ft | 445 kts | 242° |
| 2026-04-25 16:47 | 28.04595 | 57.98743 | 33922 ft | 445 kts | 242° |
| 2026-04-25 16:48 | 28.01471 | 57.92692 | 33928 ft | 445 kts | 242° |
| 2026-04-25 16:48 | 27.98349 | 57.86654 | 33929 ft | 444 kts | 242° |
| 2026-04-25 16:49 | 27.95228 | 57.80626 | 33933 ft | 444 kts | 242° |
| 2026-04-25 16:49 | 27.92105 | 57.74604 | 33926 ft | 444 kts | 242° |
| 2026-04-25 16:50 | 27.88981 | 57.68587 | 33941 ft | 444 kts | 242° |
| 2026-04-25 16:50 | 27.85854 | 57.62573 | 33940 ft | 444 kts | 242° |
| 2026-04-25 16:51 | 27.82725 | 57.56565 | 33945 ft | 443 kts | 242° |
| 2026-04-25 16:51 | 27.80653 | 57.52588 | 33948 ft | 444 kts | 242° |
| 2026-04-25 16:52 | 27.76459 | 57.44554 | 33944 ft | 444 kts | 242° |
| 2026-04-25 16:52 | 27.73315 | 57.38544 | 33953 ft | 444 kts | 242° |
| 2026-04-25 16:53 | 27.67879 | 57.30030 | 33924 ft | 450 kts | 230° |
| 2026-04-25 16:54 | 27.63660 | 57.24878 | 33939 ft | 451 kts | 230° |
| 2026-04-25 16:54 | 27.59428 | 57.19662 | 33934 ft | 451 kts | 230° |
| 2026-04-25 16:55 | 27.55187 | 57.14438 | 33936 ft | 452 kts | 230° |
| 2026-04-25 16:55 | 27.50940 | 57.09212 | 33933 ft | 452 kts | 230° |
| 2026-04-25 16:56 | 27.46687 | 57.03985 | 33940 ft | 452 kts | 230° |
| 2026-04-25 16:56 | 27.42433 | 56.98769 | 33933 ft | 453 kts | 230° |
| 2026-04-25 16:57 | 27.38171 | 56.93556 | 33933 ft | 452 kts | 230° |
| 2026-04-25 16:57 | 27.34628 | 56.89230 | 33923 ft | 452 kts | 230° |
| 2026-04-25 16:58 | 27.29644 | 56.83148 | 33919 ft | 452 kts | 230° |
| 2026-04-25 16:58 | 27.25383 | 56.77956 | 33917 ft | 452 kts | 230° |
| 2026-04-25 16:59 | 27.21124 | 56.72773 | 33754 ft | 451 kts | 230° |
| 2026-04-25 16:59 | 27.19001 | 56.70191 | 33623 ft | 450 kts | 230° |
| 2026-04-25 16:59 | 27.16874 | 56.67608 | 33484 ft | 450 kts | 230° |
| 2026-04-25 16:59 | 27.14745 | 56.65022 | 33353 ft | 451 kts | 230° |
| 2026-04-25 17:00 | 27.12619 | 56.62441 | 33222 ft | 450 kts | 230° |
| 2026-04-25 17:00 | 27.10490 | 56.59858 | 33099 ft | 450 kts | 230° |
| 2026-04-25 17:00 | 27.08361 | 56.57278 | 32966 ft | 451 kts | 230° |
| 2026-04-25 17:00 | 27.06228 | 56.54694 | 32838 ft | 452 kts | 230° |
| 2026-04-25 17:01 | 27.04121 | 56.52141 | 32715 ft | 452 kts | 230° |
| 2026-04-25 17:01 | 27.01983 | 56.49554 | 32576 ft | 452 kts | 230° |
| 2026-04-25 17:01 | 26.99846 | 56.46969 | 32472 ft | 452 kts | 230° |
| 2026-04-25 17:01 | 26.97705 | 56.44380 | 32337 ft | 453 kts | 230° |
| 2026-04-25 17:02 | 26.95563 | 56.41793 | 32211 ft | 453 kts | 230° |
| 2026-04-25 17:02 | 26.93415 | 56.39199 | 32085 ft | 454 kts | 230° |
| 2026-04-25 17:02 | 26.91268 | 56.36608 | 31966 ft | 454 kts | 229° |
| 2026-04-25 17:03 | 26.86968 | 56.31424 | 31711 ft | 455 kts | 229° |
| 2026-04-25 17:03 | 26.84818 | 56.28834 | 31461 ft | 454 kts | 229° |
| 2026-04-25 17:03 | 26.82671 | 56.26251 | 31231 ft | 452 kts | 229° |
| 2026-04-25 17:03 | 26.80536 | 56.23683 | 30997 ft | 450 kts | 229° |
| 2026-04-25 17:04 | 26.78410 | 56.21126 | 30753 ft | 448 kts | 229° |
| 2026-04-25 17:04 | 26.76256 | 56.18611 | 30363 ft | 448 kts | 225° |
| 2026-04-25 17:04 | 26.73814 | 56.16448 | 29857 ft | 449 kts | 216° |
| 2026-04-25 17:04 | 26.71080 | 56.14760 | 29193 ft | 450 kts | 207° |
| 2026-04-25 17:05 | 26.69142 | 56.13927 | 28746 ft | 450 kts | 201° |
| 2026-04-25 17:05 | 26.63134 | 56.12181 | 27478 ft | 442 kts | 198° |
| 2026-04-25 17:05 | 26.60170 | 56.11322 | 26804 ft | 438 kts | 198° |
| 2026-04-25 17:06 | 26.57231 | 56.10463 | 26156 ft | 435 kts | 198° |
| 2026-04-25 17:06 | 26.54314 | 56.09608 | 25518 ft | 431 kts | 198° |
| 2026-04-25 17:06 | 26.51424 | 56.08761 | 24892 ft | 428 kts | 198° |
| 2026-04-25 17:06 | 26.48554 | 56.07921 | 24284 ft | 424 kts | 198° |
| 2026-04-25 17:07 | 26.45711 | 56.07091 | 23685 ft | 421 kts | 198° |
| 2026-04-25 17:07 | 26.42891 | 56.06267 | 23020 ft | 417 kts | 198° |
| 2026-04-25 17:07 | 26.40094 | 56.05451 | 22317 ft | 414 kts | 198° |
| 2026-04-25 17:07 | 26.37324 | 56.04643 | 21641 ft | 410 kts | 198° |
| 2026-04-25 17:08 | 26.34575 | 56.03845 | 20978 ft | 406 kts | 198° |
| 2026-04-25 17:08 | 26.31855 | 56.03053 | 20337 ft | 402 kts | 198° |
| 2026-04-25 17:08 | 26.29165 | 56.02269 | 20028 ft | 398 kts | 198° |
| 2026-04-25 17:08 | 26.26451 | 56.01557 | 19856 ft | 404 kts | 193° |
| 2026-04-25 17:09 | 26.23654 | 56.01140 | 19699 ft | 405 kts | 190° |
| 2026-04-25 17:09 | 26.20860 | 56.00758 | 19533 ft | 404 kts | 190° |
| 2026-04-25 17:09 | 26.18069 | 56.00369 | 19347 ft | 404 kts | 190° |
| 2026-04-25 17:09 | 26.15283 | 55.99976 | 19059 ft | 403 kts | 190° |
| 2026-04-25 17:10 | 26.13438 | 55.99715 | 18853 ft | 403 kts | 190° |
| 2026-04-25 17:10 | 26.09728 | 55.99190 | 18522 ft | 401 kts | 190° |
| 2026-04-25 17:10 | 26.06957 | 55.98797 | 18297 ft | 401 kts | 190° |
| 2026-04-25 17:10 | 26.04190 | 55.98406 | 18067 ft | 400 kts | 190° |
| 2026-04-25 17:11 | 26.01435 | 55.98017 | 17800 ft | 398 kts | 189° |
| 2026-04-25 17:11 | 25.98740 | 55.97581 | 17575 ft | 394 kts | 195° |
| 2026-04-25 17:11 | 25.96169 | 55.96593 | 17379 ft | 389 kts | 208° |
| 2026-04-25 17:11 | 25.93900 | 55.94995 | 17181 ft | 385 kts | 221° |
| 2026-04-25 17:12 | 25.91914 | 55.93024 | 16994 ft | 382 kts | 224° |
| 2026-04-25 17:12 | 25.89946 | 55.91053 | 16794 ft | 377 kts | 224° |
| 2026-04-25 17:12 | 25.88030 | 55.89159 | 16537 ft | 362 kts | 224° |
| 2026-04-25 17:12 | 25.86174 | 55.87336 | 16177 ft | 351 kts | 224° |
| 2026-04-25 17:13 | 25.84371 | 55.85569 | 15818 ft | 341 kts | 224° |
| 2026-04-25 17:13 | 25.83166 | 55.84423 | 15590 ft | 335 kts | 220° |
| 2026-04-25 17:13 | 25.80591 | 55.82605 | 15142 ft | 328 kts | 209° |
| 2026-04-25 17:13 | 25.78552 | 55.81543 | 14827 ft | 320 kts | 207° |
| 2026-04-25 17:14 | 25.76559 | 55.80497 | 14527 ft | 314 kts | 208° |
| 2026-04-25 17:14 | 25.74618 | 55.79465 | 14217 ft | 305 kts | 208° |
| 2026-04-25 17:14 | 25.72735 | 55.78458 | 13896 ft | 297 kts | 208° |
| 2026-04-25 17:14 | 25.70900 | 55.77474 | 13556 ft | 289 kts | 208° |
| 2026-04-25 17:15 | 25.69114 | 55.76517 | 13197 ft | 282 kts | 208° |
| 2026-04-25 17:15 | 25.67376 | 55.75587 | 12847 ft | 275 kts | 208° |
| 2026-04-25 17:15 | 25.65653 | 55.74664 | 12503 ft | 275 kts | 208° |
| 2026-04-25 17:15 | 25.63833 | 55.73953 | 12158 ft | 278 kts | 198° |
| 2026-04-25 17:16 | 25.61974 | 55.73438 | 11816 ft | 273 kts | 196° |
| 2026-04-25 17:16 | 25.60125 | 55.72956 | 11429 ft | 276 kts | 196° |
| 2026-04-25 17:16 | 25.58263 | 55.72455 | 11034 ft | 273 kts | 196° |
| 2026-04-25 17:16 | 25.56435 | 55.71946 | 10677 ft | 269 kts | 197° |
| 2026-04-25 17:17 | 25.54613 | 55.71426 | 10338 ft | 272 kts | 197° |
| 2026-04-25 17:17 | 25.52799 | 55.70900 | 10013 ft | 267 kts | 197° |
| 2026-04-25 17:17 | 25.51004 | 55.70374 | 9697 ft | 268 kts | 197° |
| 2026-04-25 17:17 | 25.49195 | 55.69849 | 9375 ft | 269 kts | 197° |
| 2026-04-25 17:18 | 25.47399 | 55.69331 | 9037 ft | 265 kts | 197° |
| 2026-04-25 17:18 | 25.45611 | 55.68816 | 8716 ft | 266 kts | 197° |
| 2026-04-25 17:18 | 25.43820 | 55.68295 | 8398 ft | 266 kts | 197° |
| 2026-04-25 17:18 | 25.42034 | 55.67777 | 8097 ft | 265 kts | 197° |
| 2026-04-25 17:19 | 25.40254 | 55.67264 | 7775 ft | 264 kts | 197° |
| 2026-04-25 17:19 | 25.38473 | 55.66751 | 7470 ft | 264 kts | 197° |
| 2026-04-25 17:19 | 25.36699 | 55.66236 | 7174 ft | 264 kts | 197° |
| 2026-04-25 17:19 | 25.34928 | 55.65722 | 6864 ft | 263 kts | 197° |
| 2026-04-25 17:20 | 25.33163 | 55.65210 | 6580 ft | 262 kts | 197° |
| 2026-04-25 17:20 | 25.31392 | 55.64699 | 6279 ft | 263 kts | 197° |
| 2026-04-25 17:20 | 25.29634 | 55.64192 | 5961 ft | 260 kts | 197° |
| 2026-04-25 17:20 | 25.27880 | 55.63680 | 5656 ft | 262 kts | 197° |
| 2026-04-25 17:21 | 25.26125 | 55.63174 | 5338 ft | 258 kts | 197° |
| 2026-04-25 17:21 | 25.24401 | 55.62680 | 5033 ft | 257 kts | 197° |
| 2026-04-25 17:21 | 25.22666 | 55.62177 | 4733 ft | 258 kts | 197° |
| 2026-04-25 17:21 | 25.20939 | 55.61667 | 4377 ft | 255 kts | 197° |
| 2026-04-25 17:22 | 25.19233 | 55.61160 | 4025 ft | 255 kts | 197° |
| 2026-04-25 17:22 | 25.18104 | 55.60818 | 3772 ft | 252 kts | 197° |
| 2026-04-25 17:22 | 25.15917 | 55.60050 | 3284 ft | 242 kts | 211° |
| 2026-04-25 17:22 | 25.14697 | 55.58847 | 2942 ft | 232 kts | 239° |
| 2026-04-25 17:23 | 25.14277 | 55.57204 | 2597 ft | 221 kts | 276° |
| 2026-04-25 17:23 | 25.14703 | 55.55655 | 2251 ft | 204 kts | 298° |
| 2026-04-25 17:23 | 25.15371 | 55.54350 | 2068 ft | 187 kts | 302° |
| 2026-04-25 17:23 | 25.16061 | 55.53120 | 2030 ft | 190 kts | 303° |
| 2026-04-25 17:24 | 25.16751 | 55.51868 | 2019 ft | 189 kts | 302° |
| 2026-04-25 17:24 | 25.17422 | 55.50645 | 2046 ft | 189 kts | 303° |
| 2026-04-25 17:24 | 25.18107 | 55.49406 | 2038 ft | 189 kts | 303° |
| 2026-04-25 17:24 | 25.18780 | 55.48185 | 1830 ft | 181 kts | 303° |
| 2026-04-25 17:25 | 25.19414 | 55.47040 | 1611 ft | 167 kts | 303° |
| 2026-04-25 17:25 | 25.19986 | 55.46008 | 1393 ft | 149 kts | 303° |
| 2026-04-25 17:25 | 25.20508 | 55.45045 | 1152 ft | 147 kts | 302° |
| 2026-04-25 17:25 | 25.21051 | 55.44044 | 988 ft | 157 kts | 302° |
| 2026-04-25 17:26 | 25.21627 | 55.43013 | 832 ft | 158 kts | 302° |
| 2026-04-25 17:26 | 25.22196 | 55.41989 | 590 ft | 156 kts | 302° |
| 2026-04-25 17:26 | 25.22757 | 55.40983 | 395 ft | 153 kts | 301° |
| 2026-04-25 17:26 | 25.23296 | 55.40010 | 160 ft | 148 kts | 300° |
| 2026-04-25 17:27 | 25.23816 | 55.39077 | 36 ft | 137 kts | 301° |
| 2026-04-25 17:27 | 25.24250 | 55.38297 | 28 ft | 95 kts | 301° |
| 2026-04-25 17:27 | 25.24528 | 55.37795 | 28 ft | 64 kts | 301° |
| 2026-04-25 17:27 | 25.24578 | 55.37688 | 28 ft | 35 kts | 292° |
| 2026-04-25 17:28 | 25.24616 | 55.37422 | 28 ft | 12 kts | 271° |
| 2026-04-25 17:28 | 25.24617 | 55.37358 | 28 ft | 7 kts | 271° |
| 2026-04-25 17:28 | 25.24620 | 55.37308 | 28 ft | 6 kts | 273° |
| 2026-04-25 17:28 | 25.24625 | 55.37269 | 28 ft | 6 kts | 284° |
| 2026-04-25 17:29 | 25.24644 | 55.37227 | 28 ft | 7 kts | 298° |
| 2026-04-25 17:29 | 25.24668 | 55.37177 | 28 ft | 8 kts | 298° |
| 2026-04-25 17:29 | 25.24702 | 55.37121 | 28 ft | 9 kts | 303° |
| 2026-04-25 17:29 | 25.24744 | 55.37050 | 28 ft | 17 kts | 303° |
| 2026-04-25 17:30 | 25.24826 | 55.36898 | 28 ft | 25 kts | 298° |
| 2026-04-25 17:30 | 25.24872 | 55.36719 | 28 ft | 24 kts | 285° |
| 2026-04-25 17:30 | 25.24949 | 55.36559 | 28 ft | 24 kts | 302° |
| 2026-04-25 17:30 | 25.25064 | 55.36352 | 28 ft | 42 kts | 301° |
| 2026-04-25 17:31 | 25.25227 | 55.36051 | 28 ft | 45 kts | 301° |
| 2026-04-25 17:31 | 25.25388 | 55.35764 | 28 ft | 43 kts | 301° |
| 2026-04-25 17:31 | 25.25538 | 55.35492 | 28 ft | 40 kts | 301° |
| 2026-04-25 17:31 | 25.25678 | 55.35235 | 28 ft | 38 kts | 301° |
| 2026-04-25 17:32 | 25.25812 | 55.34991 | 28 ft | 36 kts | 301° |
| 2026-04-25 17:32 | 25.25941 | 55.34759 | 28 ft | 35 kts | 302° |
| 2026-04-25 17:32 | 25.26066 | 55.34537 | 28 ft | 33 kts | 302° |
| 2026-04-25 17:32 | 25.26183 | 55.34322 | 27 ft | 31 kts | 301° |
| 2026-04-25 17:33 | 25.26259 | 55.34168 | 28 ft | 15 kts | 283° |
| 2026-04-25 17:33 | 25.26202 | 55.34087 | 28 ft | 15 kts | 215° |
| 2026-04-25 17:33 | 25.26110 | 55.34026 | 28 ft | 14 kts | 211° |
| 2026-04-25 17:33 | 25.26091 | 55.34014 | 28 ft | 4 kts | 210° |
| 2026-04-25 17:34 | 25.26046 | 55.34032 | 28 ft | 9 kts | 148° |
| 2026-04-25 17:34 | 25.26027 | 55.34073 | 28 ft | 0 kts | 120° |